createdAt,value
2023-03-03T00:01:40.497Z,7.14
2023-03-03T00:04:08.485Z,7.13
2023-03-03T00:06:36.485Z,7.09
2023-03-03T00:09:04.505Z,6.96
2023-03-03T00:11:33.400Z,6.91
2023-03-03T00:14:01.286Z,6.88
2023-03-03T00:16:36.154Z,6.92
2023-03-03T00:19:07.748Z,6.86
2023-03-03T00:21:45.555Z,6.96
2023-03-03T00:24:23.976Z,6.97
2023-03-03T00:26:57.559Z,6.90
2023-03-03T00:29:36.594Z,6.94
2023-03-03T00:32:39.493Z,6.91
2023-03-03T00:35:38.964Z,6.88
2023-03-03T00:38:15.177Z,6.90
2023-03-03T00:40:43.426Z,6.88
2023-03-03T00:43:23.793Z,6.80
2023-03-03T00:45:58.788Z,6.79
2023-03-03T00:48:28.693Z,6.77
2023-03-03T00:50:59.126Z,6.79
2023-03-03T00:53:29.818Z,6.77
2023-03-03T00:55:58.238Z,6.66
2023-03-03T00:58:27.690Z,6.70
2023-03-03T01:00:56.908Z,6.82
2023-03-03T01:03:31.205Z,6.86
2023-03-03T01:05:59.162Z,6.93
2023-03-03T01:08:27.338Z,6.92
2023-03-03T01:11:00.996Z,6.90
2023-03-03T01:13:32.015Z,6.86
2023-03-03T01:16:01.117Z,6.75
2023-03-03T01:18:30.235Z,6.78
2023-03-03T01:20:58.399Z,6.68
2023-03-03T01:23:26.368Z,6.67
2023-03-03T01:25:54.425Z,6.69
2023-03-03T01:28:22.509Z,6.63
2023-03-03T01:30:51.336Z,6.56
2023-03-03T01:33:19.700Z,6.72
2023-03-03T01:35:48.630Z,6.65
2023-03-03T01:38:16.805Z,6.66
2023-03-03T01:40:53.473Z,6.63
2023-03-03T01:43:21.511Z,6.67
2023-03-03T01:45:49.356Z,6.63
2023-03-03T01:48:34.799Z,6.71
2023-03-03T01:51:05.780Z,6.66
2023-03-03T01:53:46.878Z,6.69
2023-03-03T01:56:16.928Z,6.57
2023-03-03T01:59:01.368Z,6.44
2023-03-03T02:01:31.521Z,6.61
2023-03-03T02:04:00.116Z,6.45
2023-03-03T02:06:34.159Z,6.48
2023-03-03T02:09:37.369Z,6.59
2023-03-03T02:12:09.524Z,6.58
2023-03-03T02:14:37.555Z,6.40
2023-03-03T02:17:06.952Z,6.35
2023-03-03T02:19:52.841Z,6.37
2023-03-03T02:22:30.704Z,6.37
2023-03-03T02:25:04.078Z,6.48
2023-03-03T02:27:33.215Z,6.39
2023-03-03T02:30:20.018Z,6.41
2023-03-03T02:32:48.218Z,6.50
2023-03-03T02:35:32.416Z,6.54
2023-03-03T02:38:05.519Z,6.38
2023-03-03T02:40:38.005Z,6.30
2023-03-03T02:43:07.411Z,6.33
2023-03-03T02:45:35.467Z,6.35
2023-03-03T02:48:03.543Z,6.34
2023-03-03T02:50:31.462Z,6.23
2023-03-03T02:52:59.494Z,6.31
2023-03-03T02:55:27.516Z,6.26
2023-03-03T02:57:55.735Z,6.25
2023-03-03T03:00:24.025Z,6.21
2023-03-03T03:02:51.931Z,6.27
2023-03-03T03:05:20.515Z,6.30
2023-03-03T03:07:48.378Z,6.32
2023-03-03T03:10:16.564Z,6.22
2023-03-03T03:12:44.551Z,6.34
2023-03-03T03:15:13.196Z,6.33
2023-03-03T03:17:41.104Z,6.28
2023-03-03T03:20:09.986Z,6.26
2023-03-03T03:22:37.960Z,6.26
2023-03-03T03:25:06.269Z,6.26
2023-03-03T03:27:34.619Z,6.18
2023-03-03T03:30:02.566Z,6.31
2023-03-03T03:32:31.892Z,6.23
2023-03-03T03:34:59.829Z,6.17
2023-03-03T03:37:27.898Z,6.15
2023-03-03T03:39:56.739Z,6.02
2023-03-03T03:42:26.041Z,6.02
2023-03-03T03:44:54.160Z,6.12
2023-03-03T03:47:22.211Z,6.02
2023-03-03T03:49:50.092Z,5.95
2023-03-03T03:52:18.534Z,5.80
2023-03-03T03:54:46.565Z,5.82
2023-03-03T03:57:14.697Z,5.90
2023-03-03T03:59:43.803Z,5.83
2023-03-03T04:02:11.800Z,5.93
2023-03-03T04:04:39.855Z,5.89
2023-03-03T04:07:10.772Z,5.86
2023-03-03T04:09:40.031Z,6.06
2023-03-03T04:12:08.828Z,5.93
2023-03-03T04:14:36.979Z,5.91
2023-03-03T04:17:05.051Z,5.87
2023-03-03T04:19:33.065Z,5.87
2023-03-03T04:22:01.149Z,5.74
2023-03-03T04:24:30.725Z,5.71
2023-03-03T04:26:58.747Z,5.68
2023-03-03T04:29:27.037Z,5.72
2023-03-03T04:31:56.559Z,5.82
2023-03-03T04:34:24.643Z,5.94
2023-03-03T04:36:52.790Z,5.91
2023-03-03T04:39:20.982Z,5.85
2023-03-03T04:41:48.944Z,5.74
2023-03-03T04:44:16.963Z,5.80
2023-03-03T04:46:45.135Z,5.76
2023-03-03T04:49:13.275Z,5.69
2023-03-03T04:51:43.408Z,5.77
2023-03-03T04:54:12.582Z,5.77
2023-03-03T04:56:40.574Z,5.82
2023-03-03T04:59:09.439Z,5.75
2023-03-03T05:01:37.512Z,5.56
2023-03-03T05:04:05.630Z,5.49
2023-03-03T05:06:33.621Z,5.60
2023-03-03T05:09:01.535Z,5.52
2023-03-03T05:11:29.571Z,5.56
2023-03-03T05:13:57.479Z,5.58
2023-03-03T05:16:25.592Z,5.50
2023-03-03T05:18:53.535Z,5.47
2023-03-03T05:21:22.125Z,5.44
2023-03-03T05:23:50.160Z,5.52
2023-03-03T05:26:18.152Z,5.66
2023-03-03T05:28:46.135Z,5.50
2023-03-03T05:31:14.246Z,5.57
2023-03-03T05:33:42.243Z,5.56
2023-03-03T05:36:10.286Z,5.50
2023-03-03T05:38:38.213Z,5.53
2023-03-03T05:41:06.117Z,5.57
2023-03-03T05:43:34.303Z,5.45
2023-03-03T05:46:02.236Z,5.52
2023-03-03T05:48:30.545Z,5.59
2023-03-03T05:50:59.856Z,5.51
2023-03-03T05:53:29.147Z,5.48
2023-03-03T05:55:57.763Z,5.70
2023-03-03T05:58:25.831Z,5.73
2023-03-03T06:00:53.870Z,5.81
2023-03-03T06:03:22.277Z,5.79
2023-03-03T06:05:50.237Z,5.77
2023-03-03T06:08:18.278Z,5.74
2023-03-03T06:10:46.357Z,5.80
2023-03-03T06:13:16.101Z,5.79
2023-03-03T06:15:44.105Z,5.86
2023-03-03T06:18:12.160Z,5.84
2023-03-03T06:20:40.273Z,5.89
2023-03-03T06:23:08.205Z,5.91
2023-03-03T06:25:36.509Z,5.95
2023-03-03T06:28:04.489Z,5.87
2023-03-03T06:30:34.144Z,5.93
2023-03-03T06:33:02.196Z,5.90
2023-03-03T06:35:30.264Z,5.94
2023-03-03T06:37:58.285Z,6.06
2023-03-03T06:40:26.506Z,6.13
2023-03-03T06:42:54.514Z,6.26
2023-03-03T06:45:22.636Z,6.22
2023-03-03T06:47:50.623Z,6.34
2023-03-03T06:50:21.292Z,6.36
2023-03-03T06:52:50.145Z,6.57
2023-03-03T06:55:23.283Z,6.60
2023-03-03T06:57:51.335Z,6.72
2023-03-03T07:00:25.278Z,6.83
2023-03-03T07:03:12.910Z,7.04
2023-03-03T07:05:40.792Z,7.15
2023-03-03T07:08:31.681Z,7.37
2023-03-03T07:11:08.448Z,7.38
2023-03-03T07:13:43.429Z,7.64
2023-03-03T07:16:15.591Z,7.70
2023-03-03T07:18:46.441Z,7.86
2023-03-03T07:21:22.414Z,7.88
2023-03-03T07:23:53.150Z,8.02
2023-03-03T07:26:34.973Z,8.12
2023-03-03T07:29:28.824Z,8.37
2023-03-03T07:31:58.184Z,8.61
2023-03-03T07:34:46.905Z,8.66
2023-03-03T07:37:24.277Z,9.03
2023-03-03T07:39:52.283Z,9.03
2023-03-03T07:42:29.716Z,9.09
2023-03-03T07:45:43.905Z,9.26
2023-03-03T07:48:30.727Z,9.45
2023-03-03T07:51:05.699Z,9.54
2023-03-03T07:53:37.768Z,9.72
2023-03-03T07:56:36.387Z,9.92
2023-03-03T07:59:22.824Z,10.19
2023-03-03T08:02:00.729Z,10.36
2023-03-03T08:04:52.847Z,10.44
2023-03-03T08:07:23.720Z,10.82
2023-03-03T08:10:00.447Z,11.06
2023-03-03T08:12:42.538Z,11.26
2023-03-03T08:15:25.436Z,11.08
2023-03-03T08:17:57.129Z,10.81
2023-03-03T08:21:05.475Z,11.15
2023-03-03T08:23:33.513Z,11.06
2023-03-03T08:26:01.572Z,11.12
2023-03-03T08:28:29.761Z,11.14
2023-03-03T08:31:12.964Z,11.30
2023-03-03T08:33:45.652Z,11.40
2023-03-03T08:36:14.444Z,11.46
2023-03-03T08:38:42.519Z,11.66
2023-03-03T08:41:11.308Z,11.65
2023-03-03T08:43:39.417Z,11.93
2023-03-03T08:46:10.562Z,11.73
2023-03-03T08:48:39.028Z,11.69
2023-03-03T08:51:07.071Z,11.80
2023-03-03T08:53:36.812Z,11.87
2023-03-03T08:56:07.100Z,12.26
2023-03-03T08:58:36.285Z,12.61
2023-03-03T09:01:05.341Z,12.52
2023-03-03T09:03:33.270Z,12.66
2023-03-03T09:06:02.549Z,12.99
2023-03-03T09:08:30.529Z,13.33
2023-03-03T09:10:58.510Z,13.45
2023-03-03T09:13:27.599Z,13.72
2023-03-03T09:15:58.290Z,13.84
2023-03-03T09:18:37.516Z,14.11
2023-03-03T09:21:27.038Z,14.05
2023-03-03T09:23:59.788Z,14.16
2023-03-03T09:26:59.176Z,14.10
2023-03-03T09:29:32.134Z,14.35
2023-03-03T09:32:07.515Z,14.72
2023-03-03T09:34:43.631Z,14.87
2023-03-03T09:37:24.329Z,14.42
2023-03-03T09:39:55.285Z,14.67
2023-03-03T09:42:57.147Z,14.58
2023-03-03T09:45:45.627Z,14.94
2023-03-03T09:48:39.280Z,15.03
2023-03-03T09:51:19.021Z,15.29
2023-03-03T09:54:10.790Z,15.18
2023-03-03T09:56:59.439Z,14.77
2023-03-03T09:59:47.501Z,14.89
2023-03-03T10:02:31.273Z,15.06
2023-03-03T10:05:41.928Z,15.32
2023-03-03T10:08:28.906Z,15.30
2023-03-03T10:11:04.814Z,15.54
2023-03-03T10:13:51.109Z,15.74
2023-03-03T10:16:40.728Z,15.67
2023-03-03T10:19:42.068Z,16.07
2023-03-03T10:22:20.925Z,16.21
2023-03-03T10:25:17.859Z,16.63
2023-03-03T10:28:17.991Z,16.84
2023-03-03T10:31:12.502Z,17.15
2023-03-03T10:33:54.095Z,17.19
2023-03-03T10:36:54.287Z,17.61
2023-03-03T10:39:42.150Z,17.87
2023-03-03T10:42:28.872Z,17.39
2023-03-03T10:45:38.052Z,17.75
2023-03-03T10:48:52.424Z,17.27
2023-03-03T10:51:46.048Z,17.52
2023-03-03T10:54:25.706Z,17.77
2023-03-03T10:56:56.447Z,17.65
2023-03-03T10:59:36.866Z,18.07
2023-03-03T11:02:22.975Z,18.25
2023-03-03T11:05:00.224Z,18.65
2023-03-03T11:07:37.087Z,17.66
2023-03-03T11:10:13.656Z,17.58
2023-03-03T11:12:47.699Z,17.54
2023-03-03T11:15:18.602Z,17.79
2023-03-03T11:17:52.490Z,18.06
2023-03-03T11:20:42.457Z,18.76
2023-03-03T11:23:30.528Z,18.94
2023-03-03T11:26:30.167Z,19.07
2023-03-03T11:29:22.506Z,18.82
2023-03-03T11:32:21.205Z,18.64
2023-03-03T11:34:52.458Z,19.01
2023-03-03T11:37:32.919Z,19.26
2023-03-03T11:40:12.896Z,19.08
2023-03-03T11:42:46.889Z,19.26
2023-03-03T11:45:20.116Z,19.32
2023-03-03T11:47:57.051Z,19.52
2023-03-03T11:50:41.814Z,19.47
2023-03-03T11:53:27.163Z,19.35
2023-03-03T11:56:26.329Z,19.24
2023-03-03T11:59:03.171Z,19.59
2023-03-03T12:01:39.637Z,19.77
2023-03-03T12:04:16.386Z,20.19
2023-03-03T12:07:21.721Z,20.59
2023-03-03T12:09:52.605Z,20.55
2023-03-03T12:12:43.641Z,20.38
2023-03-03T12:15:30.207Z,20.76
2023-03-03T12:17:58.096Z,20.78
2023-03-03T12:20:26.087Z,20.36
2023-03-03T12:23:15.576Z,20.95
2023-03-03T12:25:47.226Z,21.87
2023-03-03T12:28:23.034Z,22.66
2023-03-03T12:31:13.654Z,22.59
2023-03-03T12:33:47.271Z,23.10
2023-03-03T12:36:44.627Z,22.53
2023-03-03T12:39:35.316Z,22.72
2023-03-03T12:42:09.458Z,23.01
2023-03-03T12:45:05.353Z,23.87
2023-03-03T12:47:44.701Z,22.53
2023-03-03T12:50:39.956Z,23.26
2023-03-03T12:53:31.024Z,23.38
2023-03-03T12:56:03.732Z,22.61
2023-03-03T12:58:57.287Z,21.93
2023-03-03T13:02:04.214Z,21.71
2023-03-03T13:04:57.834Z,21.52
2023-03-03T13:07:46.344Z,21.89
2023-03-03T13:10:21.028Z,21.93
2023-03-03T13:13:01.989Z,21.31
2023-03-03T13:15:51.866Z,21.72
2023-03-03T13:18:51.237Z,24.55
2023-03-03T13:21:32.232Z,24.76
2023-03-03T13:24:25.088Z,27.11
2023-03-03T13:26:59.267Z,27.53
2023-03-03T13:29:30.582Z,27.73
2023-03-03T13:32:23.603Z,28.37
2023-03-03T13:35:18.446Z,29.85
2023-03-03T13:37:52.802Z,29.26
2023-03-03T13:40:35.296Z,29.04
2023-03-03T13:43:24.855Z,28.66
2023-03-03T13:46:15.206Z,28.44
2023-03-03T13:49:16.197Z,27.84
2023-03-03T13:52:01.228Z,27.15
2023-03-03T13:54:48.102Z,26.83
2023-03-03T13:57:30.934Z,26.56
2023-03-03T13:59:58.588Z,27.20
2023-03-03T14:03:06.499Z,27.44
2023-03-03T14:05:43.365Z,28.40
2023-03-03T14:08:26.081Z,28.17
2023-03-03T14:11:14.949Z,27.21
2023-03-03T14:14:02.870Z,26.42
2023-03-03T14:16:56.455Z,27.38
2023-03-03T14:19:28.831Z,27.03
2023-03-03T14:22:12.641Z,27.13
2023-03-03T14:25:10.004Z,25.76
2023-03-03T14:27:59.259Z,26.13
2023-03-03T14:30:41.058Z,24.80
2023-03-03T14:33:08.860Z,25.17
2023-03-03T14:35:38.245Z,25.50
2023-03-03T14:38:08.926Z,25.38
2023-03-03T14:40:39.349Z,25.31
2023-03-03T14:43:22.860Z,23.92
2023-03-03T14:45:53.457Z,23.12
2023-03-03T14:48:24.467Z,22.42
2023-03-03T14:51:24.670Z,21.45
2023-03-03T14:53:53.136Z,21.06
2023-03-03T14:56:25.240Z,20.76
2023-03-03T14:59:12.592Z,21.01
2023-03-03T15:01:40.528Z,21.63
2023-03-03T15:04:14.374Z,22.13
2023-03-03T15:06:42.063Z,22.03
2023-03-03T15:09:40.848Z,21.65
2023-03-03T15:12:48.199Z,21.22
2023-03-03T15:15:22.109Z,20.93
2023-03-03T15:17:55.346Z,21.11
2023-03-03T15:20:52.217Z,20.93
2023-03-03T15:23:38.691Z,20.63
2023-03-03T15:26:29.529Z,20.24
2023-03-03T15:29:03.318Z,19.96
2023-03-03T15:31:51.957Z,19.87
2023-03-03T15:34:37.746Z,19.65
2023-03-03T15:37:43.628Z,19.30
2023-03-03T15:40:28.217Z,18.68
2023-03-03T15:43:36.185Z,19.26
2023-03-03T15:46:28.931Z,18.51
2023-03-03T15:49:22.640Z,18.08
2023-03-03T15:52:05.658Z,17.32
2023-03-03T15:54:39.092Z,17.33
2023-03-03T15:57:13.389Z,16.96
2023-03-03T15:59:59.284Z,17.15
2023-03-03T16:02:58.817Z,17.63
2023-03-03T16:05:35.895Z,17.65
2023-03-03T16:08:16.032Z,17.55
2023-03-03T16:10:55.599Z,17.38
2023-03-03T16:13:32.606Z,16.83
2023-03-03T16:16:24.028Z,16.77
2023-03-03T16:19:23.724Z,16.53
2023-03-03T16:22:11.437Z,16.89
2023-03-03T16:25:03.278Z,16.69
2023-03-03T16:27:46.799Z,16.70
2023-03-03T16:30:28.341Z,16.65
2023-03-03T16:33:05.181Z,16.75
2023-03-03T16:35:43.786Z,16.84
2023-03-03T16:38:24.415Z,16.67
2023-03-03T16:40:57.941Z,16.51
2023-03-03T16:43:49.470Z,16.33
2023-03-03T16:46:25.756Z,16.35
2023-03-03T16:48:57.367Z,16.21
2023-03-03T16:51:54.365Z,16.10
2023-03-03T16:54:40.501Z,16.04
2023-03-03T16:57:26.708Z,15.84
2023-03-03T17:00:21.825Z,15.65
2023-03-03T17:03:08.066Z,15.62
2023-03-03T17:05:58.092Z,15.56
2023-03-03T17:08:40.971Z,15.45
2023-03-03T17:11:30.643Z,15.33
2023-03-03T17:14:13.766Z,15.31
2023-03-03T17:16:53.048Z,15.27
2023-03-03T17:19:28.731Z,15.12
2023-03-03T17:21:56.581Z,15.19
2023-03-03T17:24:27.530Z,15.47
2023-03-03T17:27:15.618Z,15.41
2023-03-03T17:29:50.923Z,14.85
2023-03-03T17:32:45.461Z,14.64
2023-03-03T17:35:28.390Z,14.41
2023-03-03T17:38:02.516Z,14.26
2023-03-03T17:40:36.483Z,14.20
2023-03-03T17:43:23.765Z,14.12
2023-03-03T17:45:56.425Z,14.05
2023-03-03T17:48:42.354Z,13.97
2023-03-03T17:51:43.735Z,13.91
2023-03-03T17:54:19.161Z,13.98
2023-03-03T17:57:09.150Z,14.02
2023-03-03T17:59:51.631Z,13.82
2023-03-03T18:03:01.128Z,13.60
2023-03-03T18:05:47.552Z,13.53
2023-03-03T18:08:30.780Z,13.53
2023-03-03T18:11:34.674Z,13.66
2023-03-03T18:14:11.272Z,13.52
2023-03-03T18:17:19.899Z,13.45
2023-03-03T18:20:08.688Z,13.30
2023-03-03T18:22:48.470Z,13.28
2023-03-03T18:25:37.745Z,13.22
2023-03-03T18:28:05.631Z,13.18
2023-03-03T18:30:55.341Z,13.02
2023-03-03T18:33:55.382Z,12.90
2023-03-03T18:36:26.789Z,12.85
2023-03-03T18:38:56.859Z,12.80
2023-03-03T18:41:27.837Z,12.94
2023-03-03T18:44:20.157Z,12.83
2023-03-03T18:46:50.427Z,12.72
2023-03-03T18:49:19.916Z,12.78
2023-03-03T18:51:50.545Z,12.88
2023-03-03T18:54:21.036Z,12.97
2023-03-03T18:56:57.664Z,12.86
2023-03-03T18:59:34.291Z,12.81
2023-03-03T19:02:20.806Z,12.53
2023-03-03T19:04:51.685Z,12.51
2023-03-03T19:07:29.174Z,12.36
2023-03-03T19:10:02.987Z,12.25
2023-03-03T19:12:52.002Z,12.34
2023-03-03T19:15:33.895Z,12.56
2023-03-03T19:18:15.303Z,12.26
2023-03-03T19:20:53.512Z,12.07
2023-03-03T19:23:59.969Z,12.24
2023-03-03T19:26:29.673Z,12.13
2023-03-03T19:29:16.285Z,12.26
2023-03-03T19:32:21.718Z,11.99
2023-03-03T19:34:52.488Z,11.74
2023-03-03T19:37:45.195Z,11.71
2023-03-03T19:40:25.664Z,11.80
2023-03-03T19:43:24.746Z,12.02
2023-03-03T19:46:02.895Z,11.74
2023-03-03T19:48:41.313Z,11.66
2023-03-03T19:51:23.280Z,11.69
2023-03-03T19:54:16.933Z,11.63
2023-03-03T19:56:49.741Z,11.56
2023-03-03T19:59:19.060Z,11.32
2023-03-03T20:02:11.301Z,11.61
2023-03-03T20:04:57.510Z,11.69
2023-03-03T20:07:33.495Z,11.49
2023-03-03T20:10:16.701Z,11.65
2023-03-03T20:12:53.724Z,11.63
2023-03-03T20:15:28.105Z,11.31
2023-03-03T20:18:11.443Z,11.19
2023-03-03T20:21:00.615Z,11.01
2023-03-03T20:23:38.081Z,11.30
2023-03-03T20:26:45.549Z,10.94
2023-03-03T20:29:31.326Z,11.14
2023-03-03T20:32:13.503Z,11.11
2023-03-03T20:34:47.356Z,10.91
2023-03-03T20:37:46.853Z,11.19
2023-03-03T20:40:41.055Z,11.06
2023-03-03T20:43:15.871Z,11.34
2023-03-03T20:45:56.292Z,11.12
2023-03-03T20:48:40.889Z,11.16
2023-03-03T20:51:29.870Z,11.36
2023-03-03T20:54:22.278Z,11.35
2023-03-03T20:57:13.048Z,11.17
2023-03-03T20:59:57.997Z,11.17
2023-03-03T21:02:53.943Z,11.15
2023-03-03T21:05:23.316Z,11.33
2023-03-03T21:08:01.769Z,11.32
2023-03-03T21:10:35.776Z,11.01
2023-03-03T21:13:29.621Z,10.90
2023-03-03T21:16:06.136Z,10.93
2023-03-03T21:18:33.941Z,10.99
2023-03-03T21:21:02.586Z,10.95
2023-03-03T21:23:30.412Z,10.91
2023-03-03T21:25:58.656Z,11.00
2023-03-03T21:28:29.601Z,11.06
2023-03-03T21:31:09.527Z,10.98
2023-03-03T21:33:49.462Z,10.98
2023-03-03T21:36:44.684Z,10.89
2023-03-03T21:39:30.976Z,11.01
2023-03-03T21:41:58.743Z,11.02
2023-03-03T21:44:36.160Z,11.02
2023-03-03T21:47:05.992Z,10.99
2023-03-03T21:49:34.374Z,11.06
2023-03-03T21:52:02.689Z,10.91
2023-03-03T21:54:30.447Z,10.83
2023-03-03T21:56:58.235Z,10.91
2023-03-03T21:59:26.014Z,11.02
2023-03-03T22:01:53.869Z,10.96
2023-03-03T22:04:21.648Z,10.83
2023-03-03T22:06:49.564Z,10.85
2023-03-03T22:09:17.335Z,10.85
2023-03-03T22:11:45.485Z,10.83
2023-03-03T22:14:13.566Z,10.79
2023-03-03T22:16:41.944Z,10.96
2023-03-03T22:19:09.764Z,10.97
2023-03-03T22:21:39.282Z,10.74
2023-03-03T22:24:07.971Z,10.73
2023-03-03T22:26:36.233Z,10.79
2023-03-03T22:29:04.318Z,10.77
2023-03-03T22:31:32.135Z,10.97
2023-03-03T22:34:00.140Z,10.81
2023-03-03T22:36:28.038Z,10.81
2023-03-03T22:38:56.068Z,10.92
2023-03-03T22:41:23.938Z,10.78
2023-03-03T22:43:51.695Z,10.66
2023-03-03T22:46:19.587Z,10.64
2023-03-03T22:48:47.460Z,10.59
2023-03-03T22:51:15.386Z,10.64
2023-03-03T22:53:43.081Z,10.70
2023-03-03T22:56:10.889Z,10.78
2023-03-03T22:58:38.809Z,10.61
2023-03-03T23:01:06.558Z,10.58
2023-03-03T23:03:34.600Z,10.54
2023-03-03T23:06:02.373Z,10.58
2023-03-03T23:08:30.220Z,10.52
2023-03-03T23:10:57.979Z,10.53
2023-03-03T23:13:27.228Z,10.58
2023-03-03T23:16:00.197Z,10.38
2023-03-03T23:18:29.307Z,10.29
2023-03-03T23:20:57.167Z,10.30
2023-03-03T23:23:24.976Z,10.38
2023-03-03T23:25:52.715Z,10.37
2023-03-03T23:28:20.438Z,10.40
2023-03-03T23:30:48.273Z,10.34
2023-03-03T23:33:16.100Z,10.36
2023-03-03T23:35:45.690Z,10.18
2023-03-03T23:38:15.616Z,9.99
2023-03-03T23:40:44.210Z,9.91
2023-03-03T23:43:11.997Z,9.90
2023-03-03T23:45:39.708Z,10.06
2023-03-03T23:48:07.796Z,10.17
2023-03-03T23:50:37.472Z,10.05
2023-03-03T23:53:06.758Z,9.96
2023-03-03T23:55:35.207Z,10.05
2023-03-03T23:58:02.928Z,10.05
